Terminal Aerodrome Forecast
Issued by NWS Quad Cities IA IL

Home | Current Version | Previous Version | Text Only | Print | Product List | Glossary On
Versions: 1 2 3 4 5 6 7 8 9 10 11 12 13 14 15 16 17 18 19 20 21 22 23
000
FTUS43 KDVN 202200 AAD
TAFMLI
TAF AMD
KMLI 202200Z 2022/2118 22011KT P6SM VCSH SCT050 BKN120
     FM210100 17003KT P6SM SCT120 BKN150
     FM210600 18005KT 6SM BR VCTS BKN050CB OVC120
     FM211500 21006KT P6SM VCSH SCT050 BKN120=

USA.gov is the U.S. government's official web portal to all federal, state and local government web resources and services.